CYBG

CFB Bagotville Airport

Bagotville, Quebec, Canada
METAR CYBG 191800Z 05011KT 25SM SCT023 BKN042 12/06 A3013 RMK SC3SC4 SLP207
Observed Flight Rules
Sep-19 @ 18:00 UTC (47 minutes ago) Visual Flight Rules
Wind Visibility Clouds
50° at 11 knots 25 miles
  • Scattered at 2,300' AGL
  • Broken at 4,200' AGL
Temperatures Readings
Current 12°C / 54°F
Dewpoint 6°C / 43°F
Humidity 67%
Altimeter 30.13" Hg
Pressure 1020.7 hPa
Elevation 159
METAR CYBG 191800Z 05011KT 25SM SCT023 BKN042 12/06 A3013 RMK SC3SC4 SLP207
Observed Flight Rules
Sep-19 @ 18:00 UTC
(47 minutes ago)
VFR
Wind Visibility
50° at 11 knots 25 miles
Clouds
  • Scattered at 2,300' AGL
  • Broken at 4,200' AGL
Temperature Dewpoint
12°C / 54°F 6°C / 43°F
Humidity Altimeter Pressure
67% 30.13" Hg 1020.7 hPa